sensor_id;sensor_type;location;lat;lon;timestamp;pressure;altitude;pressure_sealevel;temperature;humidity
50242;BME280;36126;43.222;27.874;2023-04-10T00:01:44;101521.84;;;4.58;100.00
50242;BME280;36126;43.222;27.874;2023-04-10T00:04:10;101518.72;;;4.70;100.00
50242;BME280;36126;43.222;27.874;2023-04-10T00:06:36;101508.72;;;4.69;100.00
50242;BME280;36126;43.222;27.874;2023-04-10T00:09:02;101508.88;;;4.75;100.00
50242;BME280;36126;43.222;27.874;2023-04-10T00:11:28;101502.91;;;4.64;100.00
50242;BME280;36126;43.222;27.874;2023-04-10T00:13:54;101498.66;;;4.92;100.00
50242;BME280;36126;43.222;27.874;2023-04-10T00:16:20;101503.47;;;4.99;100.00
50242;BME280;36126;43.222;27.874;2023-04-10T00:18:46;101494.22;;;5.15;100.00
50242;BME280;36126;43.222;27.874;2023-04-10T00:21:11;101489.88;;;5.20;100.00
50242;BME280;36126;43.222;27.874;2023-04-10T00:23:37;101496.41;;;5.27;100.00
50242;BME280;36126;43.222;27.874;2023-04-10T00:26:02;101484.50;;;5.27;100.00
50242;BME280;36126;43.222;27.874;2023-04-10T00:28:28;101482.97;;;5.24;100.00
50242;BME280;36126;43.222;27.874;2023-04-10T00:30:54;101487.59;;;5.32;100.00
50242;BME280;36126;43.222;27.874;2023-04-10T00:33:20;101478.53;;;5.23;100.00
50242;BME280;36126;43.222;27.874;2023-04-10T00:35:45;101482.19;;;5.16;100.00
50242;BME280;36126;43.222;27.874;2023-04-10T00:38:11;101474.47;;;5.34;100.00
50242;BME280;36126;43.222;27.874;2023-04-10T00:40:37;101468.50;;;5.54;100.00
50242;BME280;36126;43.222;27.874;2023-04-10T00:43:02;101464.53;;;5.48;100.00
50242;BME280;36126;43.222;27.874;2023-04-10T00:45:28;101471.00;;;5.64;100.00
50242;BME280;36126;43.222;27.874;2023-04-10T00:47:54;101457.38;;;5.62;100.00
50242;BME280;36126;43.222;27.874;2023-04-10T00:50:20;101462.88;;;5.62;100.00
50242;BME280;36126;43.222;27.874;2023-04-10T00:52:47;101447.88;;;5.65;100.00
50242;BME280;36126;43.222;27.874;2023-04-10T00:55:13;101452.03;;;5.84;100.00
50242;BME280;36126;43.222;27.874;2023-04-10T00:57:42;101458.25;;;6.01;100.00
50242;BME280;36126;43.222;27.874;2023-04-10T01:00:08;101445.56;;;6.15;100.00
50242;BME280;36126;43.222;27.874;2023-04-10T01:02:34;101446.31;;;6.23;100.00
50242;BME280;36126;43.222;27.874;2023-04-10T01:05:00;101442.03;;;6.21;100.00
50242;BME280;36126;43.222;27.874;2023-04-10T01:09:59;101435.09;;;6.25;100.00
50242;BME280;36126;43.222;27.874;2023-04-10T01:15:11;101435.66;;;6.05;100.00
50242;BME280;36126;43.222;27.874;2023-04-10T01:20:22;101434.13;;;5.79;100.00
50242;BME280;36126;43.222;27.874;2023-04-10T01:25:26;101430.19;;;5.97;100.00
50242;BME280;36126;43.222;27.874;2023-04-10T01:30:40;101437.69;;;5.88;100.00
50242;BME280;36126;43.222;27.874;2023-04-10T01:33:07;101438.41;;;6.05;100.00
50242;BME280;36126;43.222;27.874;2023-04-10T01:35:34;101434.34;;;5.93;100.00
50242;BME280;36126;43.222;27.874;2023-04-10T01:38:01;101439.72;;;5.71;100.00
50242;BME280;36126;43.222;27.874;2023-04-10T01:40:29;101433.44;;;5.62;100.00
50242;BME280;36126;43.222;27.874;2023-04-10T01:42:55;101435.31;;;5.62;100.00
50242;BME280;36126;43.222;27.874;2023-04-10T01:45:26;101426.56;;;5.58;100.00
50242;BME280;36126;43.222;27.874;2023-04-10T01:47:53;101433.34;;;5.71;100.00
50242;BME280;36126;43.222;27.874;2023-04-10T01:50:20;101431.81;;;5.68;100.00
50242;BME280;36126;43.222;27.874;2023-04-10T01:52:48;101429.47;;;5.42;100.00
50242;BME280;36126;43.222;27.874;2023-04-10T01:55:15;101428.44;;;5.43;100.00
50242;BME280;36126;43.222;27.874;2023-04-10T01:57:42;101435.34;;;5.39;100.00
50242;BME280;36126;43.222;27.874;2023-04-10T02:00:08;101428.50;;;5.35;100.00
50242;BME280;36126;43.222;27.874;2023-04-10T02:02:34;101424.19;;;5.32;100.00
50242;BME280;36126;43.222;27.874;2023-04-10T02:04:59;101421.69;;;5.45;100.00
50242;BME280;36126;43.222;27.874;2023-04-10T02:07:28;101419.66;;;5.39;100.00
50242;BME280;36126;43.222;27.874;2023-04-10T02:10:42;101411.38;;;5.39;100.00
50242;BME280;36126;43.222;27.874;2023-04-10T02:12:45;101420.16;;;5.20;100.00
50242;BME280;36126;43.222;27.874;2023-04-10T02:15:15;101409.31;;;5.41;100.00
50242;BME280;36126;43.222;27.874;2023-04-10T02:17:42;101406.84;;;5.85;100.00
50242;BME280;36126;43.222;27.874;2023-04-10T02:20:08;101408.31;;;5.95;100.00
50242;BME280;36126;43.222;27.874;2023-04-10T02:22:34;101401.50;;;5.68;100.00
50242;BME280;36126;43.222;27.874;2023-04-10T02:25:02;101402.34;;;5.31;100.00
50242;BME280;36126;43.222;27.874;2023-04-10T02:27:29;101390.38;;;5.38;100.00
50242;BME280;36126;43.222;27.874;2023-04-10T02:29:55;101403.97;;;5.40;100.00
50242;BME280;36126;43.222;27.874;2023-04-10T02:32:21;101405.63;;;5.49;100.00
50242;BME280;36126;43.222;27.874;2023-04-10T02:34:47;101407.28;;;5.58;100.00
50242;BME280;36126;43.222;27.874;2023-04-10T02:37:12;101406.66;;;5.48;100.00
50242;BME280;36126;43.222;27.874;2023-04-10T02:39:38;101405.31;;;5.44;100.00
50242;BME280;36126;43.222;27.874;2023-04-10T02:42:04;101409.84;;;5.60;100.00
50242;BME280;36126;43.222;27.874;2023-04-10T02:44:30;101409.09;;;5.66;100.00
50242;BME280;36126;43.222;27.874;2023-04-10T02:46:55;101417.09;;;5.61;100.00
50242;BME280;36126;43.222;27.874;2023-04-10T02:49:21;101411.38;;;5.62;100.00
50242;BME280;36126;43.222;27.874;2023-04-10T02:51:47;101405.94;;;5.54;100.00
50242;BME280;36126;43.222;27.874;2023-04-10T02:54:12;101408.06;;;5.44;100.00
50242;BME280;36126;43.222;27.874;2023-04-10T02:56:38;101403.97;;;5.40;100.00
50242;BME280;36126;43.222;27.874;2023-04-10T02:59:04;101405.25;;;5.52;100.00
50242;BME280;36126;43.222;27.874;2023-04-10T03:01:30;101409.91;;;5.52;100.00
50242;BME280;36126;43.222;27.874;2023-04-10T03:03:56;101400.38;;;5.16;100.00
50242;BME280;36126;43.222;27.874;2023-04-10T03:06:22;101398.78;;;5.22;100.00
50242;BME280;36126;43.222;27.874;2023-04-10T03:08:51;101399.53;;;5.16;100.00
50242;BME280;36126;43.222;27.874;2023-04-10T03:11:17;101390.94;;;5.10;100.00
50242;BME280;36126;43.222;27.874;2023-04-10T03:13:42;101401.72;;;5.20;100.00
50242;BME280;36126;43.222;27.874;2023-04-10T03:16:08;101399.63;;;4.99;100.00
50242;BME280;36126;43.222;27.874;2023-04-10T03:18:34;101404.53;;;5.12;100.00
50242;BME280;36126;43.222;27.874;2023-04-10T03:21:00;101398.31;;;5.18;100.00
50242;BME280;36126;43.222;27.874;2023-04-10T03:23:26;101399.78;;;5.29;100.00
50242;BME280;36126;43.222;27.874;2023-04-10T03:25:52;101392.03;;;5.48;100.00
50242;BME280;36126;43.222;27.874;2023-04-10T03:28:19;101387.03;;;5.28;100.00
50242;BME280;36126;43.222;27.874;2023-04-10T03:30:45;101387.34;;;5.33;100.00
50242;BME280;36126;43.222;27.874;2023-04-10T03:33:11;101380.88;;;5.41;100.00
50242;BME280;36126;43.222;27.874;2023-04-10T03:35:36;101376.41;;;5.40;100.00
50242;BME280;36126;43.222;27.874;2023-04-10T03:38:02;101378.38;;;5.08;100.00
50242;BME280;36126;43.222;27.874;2023-04-10T03:40:28;101385.56;;;5.17;100.00
50242;BME280;36126;43.222;27.874;2023-04-10T03:42:54;101377.16;;;5.10;100.00
50242;BME280;36126;43.222;27.874;2023-04-10T03:45:20;101381.06;;;5.16;100.00
50242;BME280;36126;43.222;27.874;2023-04-10T03:47:46;101385.69;;;5.24;100.00
50242;BME280;36126;43.222;27.874;2023-04-10T03:50:12;101387.28;;;5.41;100.00
50242;BME280;36126;43.222;27.874;2023-04-10T03:52:39;101380.44;;;5.52;100.00
50242;BME280;36126;43.222;27.874;2023-04-10T03:55:05;101385.88;;;5.60;100.00
50242;BME280;36126;43.222;27.874;2023-04-10T03:57:31;101381.84;;;5.86;100.00
50242;BME280;36126;43.222;27.874;2023-04-10T03:59:56;101387.03;;;6.04;100.00
50242;BME280;36126;43.222;27.874;2023-04-10T04:02:22;101384.75;;;6.08;100.00
50242;BME280;36126;43.222;27.874;2023-04-10T04:04:48;101388.47;;;6.15;100.00
50242;BME280;36126;43.222;27.874;2023-04-10T04:07:14;101393.13;;;6.00;100.00
50242;BME280;36126;43.222;27.874;2023-04-10T04:09:39;101397.22;;;6.04;100.00
50242;BME280;36126;43.222;27.874;2023-04-10T04:12:06;101393.56;;;6.03;100.00
50242;BME280;36126;43.222;27.874;2023-04-10T04:14:31;101389.59;;;6.51;100.00
50242;BME280;36126;43.222;27.874;2023-04-10T04:16:57;101394.69;;;6.69;100.00
50242;BME280;36126;43.222;27.874;2023-04-10T04:19:23;101385.38;;;6.91;100.00
50242;BME280;36126;43.222;27.874;2023-04-10T04:21:49;101380.31;;;7.17;100.00
50242;BME280;36126;43.222;27.874;2023-04-10T04:24:15;101383.25;;;7.30;100.00
50242;BME280;36126;43.222;27.874;2023-04-10T04:26:41;101382.19;;;7.31;100.00
50242;BME280;36126;43.222;27.874;2023-04-10T04:29:06;101385.84;;;7.60;100.00
50242;BME280;36126;43.222;27.874;2023-04-10T04:31:32;101389.38;;;7.75;100.00
50242;BME280;36126;43.222;27.874;2023-04-10T04:33:58;101383.38;;;8.00;100.00
50242;BME280;36126;43.222;27.874;2023-04-10T04:36:24;101380.97;;;7.90;100.00
50242;BME280;36126;43.222;27.874;2023-04-10T04:38:52;101381.94;;;8.04;100.00
50242;BME280;36126;43.222;27.874;2023-04-10T04:41:17;101386.69;;;8.17;100.00
50242;BME280;36126;43.222;27.874;2023-04-10T04:43:43;101385.22;;;8.56;100.00
50242;BME280;36126;43.222;27.874;2023-04-10T04:46:09;101381.03;;;8.74;100.00
50242;BME280;36126;43.222;27.874;2023-04-10T04:48:34;101383.88;;;8.94;100.00
50242;BME280;36126;43.222;27.874;2023-04-10T04:51:01;101375.38;;;9.15;100.00
50242;BME280;36126;43.222;27.874;2023-04-10T04:53:27;101377.75;;;9.39;100.00
50242;BME280;36126;43.222;27.874;2023-04-10T04:55:52;101374.16;;;9.45;100.00
50242;BME280;36126;43.222;27.874;2023-04-10T04:58:21;101364.09;;;9.17;100.00
50242;BME280;36126;43.222;27.874;2023-04-10T05:00:48;101377.38;;;9.82;100.00
50242;BME280;36126;43.222;27.874;2023-04-10T05:03:14;101373.72;;;9.81;100.00
50242;BME280;36126;43.222;27.874;2023-04-10T05:05:39;101381.19;;;9.87;100.00
50242;BME280;36126;43.222;27.874;2023-04-10T05:08:05;101374.31;;;10.17;100.00
50242;BME280;36126;43.222;27.874;2023-04-10T05:10:30;101379.41;;;10.27;100.00
50242;BME280;36126;43.222;27.874;2023-04-10T05:12:59;101374.69;;;10.34;100.00
50242;BME280;36126;43.222;27.874;2023-04-10T05:15:24;101386.75;;;9.87;100.00
50242;BME280;36126;43.222;27.874;2023-04-10T05:17:49;101380.91;;;10.43;100.00
50242;BME280;36126;43.222;27.874;2023-04-10T05:20:17;101374.75;;;10.20;100.00
50242;BME280;36126;43.222;27.874;2023-04-10T05:22:42;101376.88;;;10.12;100.00
50242;BME280;36126;43.222;27.874;2023-04-10T05:25:09;101373.31;;;10.63;100.00
50242;BME280;36126;43.222;27.874;2023-04-10T05:27:35;101380.91;;;10.88;100.00
50242;BME280;36126;43.222;27.874;2023-04-10T05:30:01;101381.41;;;11.10;100.00
50242;BME280;36126;43.222;27.874;2023-04-10T05:32:28;101379.41;;;11.24;100.00
50242;BME280;36126;43.222;27.874;2023-04-10T05:34:54;101376.00;;;11.54;100.00
50242;BME280;36126;43.222;27.874;2023-04-10T05:37:19;101375.31;;;11.84;100.00
50242;BME280;36126;43.222;27.874;2023-04-10T05:39:45;101379.63;;;11.54;100.00
50242;BME280;36126;43.222;27.874;2023-04-10T05:42:11;101384.25;;;11.67;100.00
50242;BME280;36126;43.222;27.874;2023-04-10T05:44:38;101373.06;;;11.74;100.00
50242;BME280;36126;43.222;27.874;2023-04-10T05:47:04;101380.53;;;11.73;100.00
50242;BME280;36126;43.222;27.874;2023-04-10T05:49:29;101377.59;;;11.68;100.00
50242;BME280;36126;43.222;27.874;2023-04-10T05:51:55;101377.41;;;12.14;100.00
50242;BME280;36126;43.222;27.874;2023-04-10T05:54:20;101377.88;;;12.48;100.00
50242;BME280;36126;43.222;27.874;2023-04-10T05:56:46;101372.44;;;12.71;100.00
50242;BME280;36126;43.222;27.874;2023-04-10T05:59:11;101382.31;;;12.55;100.00
50242;BME280;36126;43.222;27.874;2023-04-10T06:01:41;101380.38;;;11.94;100.00
50242;BME280;36126;43.222;27.874;2023-04-10T06:04:06;101378.50;;;12.31;100.00
50242;BME280;36126;43.222;27.874;2023-04-10T06:06:32;101373.88;;;12.92;100.00
50242;BME280;36126;43.222;27.874;2023-04-10T06:08:57;101378.34;;;12.82;100.00
50242;BME280;36126;43.222;27.874;2023-04-10T06:11:23;101380.47;;;12.98;100.00
50242;BME280;36126;43.222;27.874;2023-04-10T06:13:48;101375.88;;;12.73;100.00
50242;BME280;36126;43.222;27.874;2023-04-10T06:16:14;101379.09;;;12.89;100.00
50242;BME280;36126;43.222;27.874;2023-04-10T06:18:40;101380.84;;;13.02;100.00
50242;BME280;36126;43.222;27.874;2023-04-10T06:21:06;101380.66;;;13.15;100.00
50242;BME280;36126;43.222;27.874;2023-04-10T06:23:31;101376.06;;;13.21;100.00
50242;BME280;36126;43.222;27.874;2023-04-10T06:25:57;101382.00;;;13.43;100.00
50242;BME280;36126;43.222;27.874;2023-04-10T06:28:22;101383.63;;;13.32;100.00
50242;BME280;36126;43.222;27.874;2023-04-10T06:30:48;101384.28;;;12.85;100.00
50242;BME280;36126;43.222;27.874;2023-04-10T06:33:14;101388.94;;;12.36;100.00
50242;BME280;36126;43.222;27.874;2023-04-10T06:35:40;101387.94;;;13.16;100.00
50242;BME280;36126;43.222;27.874;2023-04-10T06:38:07;101386.47;;;12.83;100.00
50242;BME280;36126;43.222;27.874;2023-04-10T06:40:33;101398.56;;;12.58;100.00
50242;BME280;36126;43.222;27.874;2023-04-10T06:42:58;101399.78;;;12.81;100.00
50242;BME280;36126;43.222;27.874;2023-04-10T06:45:24;101389.41;;;12.70;100.00
50242;BME280;36126;43.222;27.874;2023-04-10T06:47:50;101392.47;;;12.50;100.00
50242;BME280;36126;43.222;27.874;2023-04-10T06:50:16;101392.34;;;12.56;100.00
50242;BME280;36126;43.222;27.874;2023-04-10T06:52:42;101396.38;;;12.79;100.00
50242;BME280;36126;43.222;27.874;2023-04-10T06:55:08;101391.56;;;12.86;100.00
50242;BME280;36126;43.222;27.874;2023-04-10T06:57:33;101392.31;;;12.93;100.00
50242;BME280;36126;43.222;27.874;2023-04-10T07:00:00;101391.84;;;12.97;100.00
50242;BME280;36126;43.222;27.874;2023-04-10T07:02:25;101396.31;;;13.16;100.00
50242;BME280;36126;43.222;27.874;2023-04-10T07:04:51;101399.28;;;13.03;100.00
50242;BME280;36126;43.222;27.874;2023-04-10T07:07:17;101393.78;;;13.15;100.00
50242;BME280;36126;43.222;27.874;2023-04-10T07:09:43;101404.03;;;13.63;100.00
50242;BME280;36126;43.222;27.874;2023-04-10T07:12:09;101400.44;;;13.56;100.00
50242;BME280;36126;43.222;27.874;2023-04-10T07:14:35;101391.94;;;13.39;100.00
50242;BME280;36126;43.222;27.874;2023-04-10T07:17:01;101392.63;;;13.34;100.00
50242;BME280;36126;43.222;27.874;2023-04-10T07:19:27;101396.16;;;13.84;100.00
50242;BME280;36126;43.222;27.874;2023-04-10T07:21:52;101397.09;;;13.77;100.00
50242;BME280;36126;43.222;27.874;2023-04-10T07:24:18;101400.84;;;14.78;100.00
50242;BME280;36126;43.222;27.874;2023-04-10T07:26:44;101392.44;;;14.78;100.00
50242;BME280;36126;43.222;27.874;2023-04-10T07:29:10;101395.50;;;15.34;100.00
50242;BME280;36126;43.222;27.874;2023-04-10T07:31:36;101401.56;;;15.77;100.00
50242;BME280;36126;43.222;27.874;2023-04-10T07:34:01;101395.75;;;15.33;100.00
50242;BME280;36126;43.222;27.874;2023-04-10T07:36:27;101398.97;;;15.70;100.00
50242;BME280;36126;43.222;27.874;2023-04-10T07:38:52;101405.59;;;15.35;100.00
50242;BME280;36126;43.222;27.874;2023-04-10T07:41:18;101400.53;;;14.91;100.00
50242;BME280;36126;43.222;27.874;2023-04-10T07:43:44;101401.56;;;14.73;100.00
50242;BME280;36126;43.222;27.874;2023-04-10T07:46:10;101394.41;;;14.54;100.00
50242;BME280;36126;43.222;27.874;2023-04-10T07:48:36;101388.78;;;14.77;100.00
50242;BME280;36126;43.222;27.874;2023-04-10T07:51:01;101387.44;;;15.21;100.00
50242;BME280;36126;43.222;27.874;2023-04-10T07:53:27;101391.81;;;15.17;100.00
50242;BME280;36126;43.222;27.874;2023-04-10T07:55:52;101388.22;;;15.04;100.00
50242;BME280;36126;43.222;27.874;2023-04-10T07:58:18;101383.13;;;14.37;100.00
50242;BME280;36126;43.222;27.874;2023-04-10T08:00:43;101379.66;;;14.82;100.00
50242;BME280;36126;43.222;27.874;2023-04-10T08:03:10;101383.34;;;14.71;100.00
50242;BME280;36126;43.222;27.874;2023-04-10T08:05:36;101376.34;;;14.44;100.00
50242;BME280;36126;43.222;27.874;2023-04-10T08:08:01;101366.97;;;14.62;100.00
50242;BME280;36126;43.222;27.874;2023-04-10T08:10:27;101372.00;;;15.06;100.00
50242;BME280;36126;43.222;27.874;2023-04-10T08:12:52;101363.69;;;14.42;100.00
50242;BME280;36126;43.222;27.874;2023-04-10T08:15:17;101360.13;;;14.99;100.00
50242;BME280;36126;43.222;27.874;2023-04-10T08:17:43;101351.00;;;15.50;100.00
50242;BME280;36126;43.222;27.874;2023-04-10T08:20:09;101355.13;;;15.64;100.00
50242;BME280;36126;43.222;27.874;2023-04-10T08:22:35;101340.06;;;15.82;100.00
50242;BME280;36126;43.222;27.874;2023-04-10T08:25:00;101359.34;;;15.95;100.00
50242;BME280;36126;43.222;27.874;2023-04-10T08:27:26;101354.78;;;16.11;100.00
50242;BME280;36126;43.222;27.874;2023-04-10T08:29:52;101357.69;;;16.39;100.00
50242;BME280;36126;43.222;27.874;2023-04-10T08:32:17;101360.13;;;16.30;100.00
50242;BME280;36126;43.222;27.874;2023-04-10T08:34:43;101355.72;;;15.49;100.00
50242;BME280;36126;43.222;27.874;2023-04-10T08:37:09;101360.75;;;15.01;100.00
50242;BME280;36126;43.222;27.874;2023-04-10T08:39:36;101359.97;;;15.35;100.00
50242;BME280;36126;43.222;27.874;2023-04-10T08:42:02;101363.03;;;15.04;100.00
50242;BME280;36126;43.222;27.874;2023-04-10T08:44:28;101357.31;;;14.70;100.00
50242;BME280;36126;43.222;27.874;2023-04-10T08:46:53;101347.63;;;14.90;100.00
50242;BME280;36126;43.222;27.874;2023-04-10T08:49:23;101345.41;;;14.51;100.00
50242;BME280;36126;43.222;27.874;2023-04-10T08:51:58;101338.53;;;14.42;100.00
50242;BME280;36126;43.222;27.874;2023-04-10T08:54:30;101337.97;;;15.26;100.00
50242;BME280;36126;43.222;27.874;2023-04-10T08:56:57;101334.94;;;15.96;100.00
50242;BME280;36126;43.222;27.874;2023-04-10T08:59:26;101328.22;;;15.63;100.00
50242;BME280;36126;43.222;27.874;2023-04-10T09:01:58;101325.88;;;15.89;100.00
50242;BME280;36126;43.222;27.874;2023-04-10T09:04:25;101321.88;;;16.68;100.00
50242;BME280;36126;43.222;27.874;2023-04-10T09:06:52;101321.75;;;16.13;100.00
50242;BME280;36126;43.222;27.874;2023-04-10T09:09:18;101315.41;;;16.01;100.00
50242;BME280;36126;43.222;27.874;2023-04-10T09:14:29;101311.78;;;15.84;100.00
50242;BME280;36126;43.222;27.874;2023-04-10T09:19:41;101307.59;;;14.60;100.00
50242;BME280;36126;43.222;27.874;2023-04-10T09:22:07;101301.66;;;14.86;100.00
50242;BME280;36126;43.222;27.874;2023-04-10T09:24:36;101306.31;;;14.39;100.00
50242;BME280;36126;43.222;27.874;2023-04-10T09:27:03;101303.94;;;14.60;100.00
50242;BME280;36126;43.222;27.874;2023-04-10T09:29:41;101299.66;;;14.69;100.00
50242;BME280;36126;43.222;27.874;2023-04-10T09:32:08;101290.44;;;14.98;100.00
50242;BME280;36126;43.222;27.874;2023-04-10T09:34:33;101288.31;;;15.22;100.00
50242;BME280;36126;43.222;27.874;2023-04-10T09:36:59;101285.72;;;15.15;100.00
50242;BME280;36126;43.222;27.874;2023-04-10T09:39:35;101279.19;;;15.43;100.00
50242;BME280;36126;43.222;27.874;2023-04-10T09:42:05;101277.22;;;15.27;100.00
50242;BME280;36126;43.222;27.874;2023-04-10T09:44:33;101280.28;;;15.42;100.00
50242;BME280;36126;43.222;27.874;2023-04-10T09:47:18;101283.59;;;15.39;100.00
50242;BME280;36126;43.222;27.874;2023-04-10T09:49:45;101277.81;;;15.63;100.00
50242;BME280;36126;43.222;27.874;2023-04-10T09:52:21;101267.94;;;15.94;100.00
50242;BME280;36126;43.222;27.874;2023-04-10T09:54:47;101276.44;;;15.65;100.00
50242;BME280;36126;43.222;27.874;2023-04-10T09:57:17;101269.91;;;15.77;100.00
50242;BME280;36126;43.222;27.874;2023-04-10T09:59:49;101279.19;;;16.17;100.00
50242;BME280;36126;43.222;27.874;2023-04-10T10:02:17;101268.47;;;14.89;100.00
50242;BME280;36126;43.222;27.874;2023-04-10T10:04:44;101262.56;;;15.37;100.00
50242;BME280;36126;43.222;27.874;2023-04-10T10:07:15;101251.00;;;15.84;100.00
50242;BME280;36126;43.222;27.874;2023-04-10T10:09:42;101251.47;;;15.98;100.00
50242;BME280;36126;43.222;27.874;2023-04-10T10:12:09;101257.09;;;15.98;100.00
50242;BME280;36126;43.222;27.874;2023-04-10T10:14:36;101245.00;;;15.97;100.00
50242;BME280;36126;43.222;27.874;2023-04-10T10:17:07;101244.81;;;16.04;100.00
50242;BME280;36126;43.222;27.874;2023-04-10T10:19:49;101251.47;;;16.42;100.00
50242;BME280;36126;43.222;27.874;2023-04-10T10:22:18;101241.97;;;16.43;100.00
50242;BME280;36126;43.222;27.874;2023-04-10T10:24:44;101249.94;;;16.57;100.00
50242;BME280;36126;43.222;27.874;2023-04-10T10:27:11;101247.91;;;17.34;100.00
50242;BME280;36126;43.222;27.874;2023-04-10T10:29:39;101243.41;;;17.71;100.00
50242;BME280;36126;43.222;27.874;2023-04-10T10:32:06;101239.81;;;17.85;100.00
50242;BME280;36126;43.222;27.874;2023-04-10T10:34:32;101244.03;;;17.40;100.00
50242;BME280;36126;43.222;27.874;2023-04-10T10:37:00;101234.31;;;16.39;100.00
50242;BME280;36126;43.222;27.874;2023-04-10T10:46:51;101221.34;;;16.32;100.00
50242;BME280;36126;43.222;27.874;2023-04-10T10:49:21;101211.72;;;16.23;100.00
50242;BME280;36126;43.222;27.874;2023-04-10T10:54:31;101199.00;;;16.92;100.00
50242;BME280;36126;43.222;27.874;2023-04-10T10:56:58;101196.91;;;16.55;100.00
50242;BME280;36126;43.222;27.874;2023-04-10T10:59:52;101172.81;;;16.32;100.00
50242;BME280;36126;43.222;27.874;2023-04-10T11:02:18;101194.31;;;16.48;100.00
50242;BME280;36126;43.222;27.874;2023-04-10T11:04:45;101187.19;;;16.63;100.00
50242;BME280;36126;43.222;27.874;2023-04-10T11:07:12;101185.13;;;17.13;100.00
50242;BME280;36126;43.222;27.874;2023-04-10T11:09:51;101180.00;;;17.05;100.00
50242;BME280;36126;43.222;27.874;2023-04-10T11:12:25;101189.06;;;17.12;100.00
50242;BME280;36126;43.222;27.874;2023-04-10T11:15:01;101180.41;;;17.19;100.00
50242;BME280;36126;43.222;27.874;2023-04-10T11:17:46;101185.97;;;16.81;100.00
50242;BME280;36126;43.222;27.874;2023-04-10T11:20:16;101181.19;;;16.27;100.00
50242;BME280;36126;43.222;27.874;2023-04-10T11:25:45;101167.22;;;16.05;100.00
50242;BME280;36126;43.222;27.874;2023-04-10T11:28:28;101170.50;;;16.24;100.00
50242;BME280;36126;43.222;27.874;2023-04-10T11:34:07;101169.91;;;16.22;100.00
50242;BME280;36126;43.222;27.874;2023-04-10T11:36:41;101171.63;;;16.50;100.00
50242;BME280;36126;43.222;27.874;2023-04-10T11:39:08;101164.13;;;16.06;100.00
50242;BME280;36126;43.222;27.874;2023-04-10T11:41:35;101162.00;;;15.91;100.00
50242;BME280;36126;43.222;27.874;2023-04-10T11:44:03;101163.22;;;16.01;100.00
50242;BME280;36126;43.222;27.874;2023-04-10T11:46:30;101164.47;;;16.37;100.00
50242;BME280;36126;43.222;27.874;2023-04-10T11:49:01;101160.44;;;16.28;100.00
50242;BME280;36126;43.222;27.874;2023-04-10T11:51:27;101159.91;;;15.81;100.00
50242;BME280;36126;43.222;27.874;2023-04-10T11:56:31;101165.59;;;15.30;100.00
50242;BME280;36126;43.222;27.874;2023-04-10T11:58:57;101155.53;;;15.12;100.00
50242;BME280;36126;43.222;27.874;2023-04-10T12:01:24;101155.28;;;15.14;100.00
50242;BME280;36126;43.222;27.874;2023-04-10T12:03:54;101149.28;;;15.05;100.00
50242;BME280;36126;43.222;27.874;2023-04-10T12:06:20;101149.75;;;15.02;100.00
50242;BME280;36126;43.222;27.874;2023-04-10T12:08:46;101145.88;;;15.03;100.00
50242;BME280;36126;43.222;27.874;2023-04-10T12:11:14;101148.91;;;15.58;100.00
50242;BME280;36126;43.222;27.874;2023-04-10T12:13:41;101151.34;;;15.93;100.00
50242;BME280;36126;43.222;27.874;2023-04-10T12:16:07;101146.72;;;16.04;100.00
50242;BME280;36126;43.222;27.874;2023-04-10T12:18:33;101146.00;;;16.14;100.00
50242;BME280;36126;43.222;27.874;2023-04-10T12:21:00;101137.28;;;16.10;100.00
50242;BME280;36126;43.222;27.874;2023-04-10T12:23:26;101126.59;;;16.35;100.00
50242;BME280;36126;43.222;27.874;2023-04-10T12:25:52;101132.03;;;16.79;100.00
50242;BME280;36126;43.222;27.874;2023-04-10T12:28:19;101130.03;;;17.07;100.00
50242;BME280;36126;43.222;27.874;2023-04-10T12:30:46;101125.44;;;16.90;100.00
50242;BME280;36126;43.222;27.874;2023-04-10T12:33:12;101124.91;;;16.93;100.00
50242;BME280;36126;43.222;27.874;2023-04-10T12:35:38;101127.56;;;16.78;100.00
50242;BME280;36126;43.222;27.874;2023-04-10T12:38:06;101120.75;;;17.01;100.00
50242;BME280;36126;43.222;27.874;2023-04-10T12:40:32;101117.44;;;17.09;100.00
50242;BME280;36126;43.222;27.874;2023-04-10T12:42:57;101108.09;;;16.98;100.00
50242;BME280;36126;43.222;27.874;2023-04-10T12:45:42;101098.03;;;17.03;100.00
50242;BME280;36126;43.222;27.874;2023-04-10T12:48:07;101107.41;;;17.77;100.00
50242;BME280;36126;43.222;27.874;2023-04-10T12:50:33;101092.69;;;18.23;100.00
50242;BME280;36126;43.222;27.874;2023-04-10T12:53:10;101084.28;;;18.64;98.06
50242;BME280;36126;43.222;27.874;2023-04-10T12:55:38;101087.38;;;18.31;97.90
50242;BME280;36126;43.222;27.874;2023-04-10T12:58:18;101090.19;;;17.58;99.01
50242;BME280;36126;43.222;27.874;2023-04-10T13:00:45;101081.41;;;17.97;96.95
50242;BME280;36126;43.222;27.874;2023-04-10T13:03:11;101085.91;;;18.08;95.74
50242;BME280;36126;43.222;27.874;2023-04-10T13:05:36;101084.06;;;16.80;100.00
50242;BME280;36126;43.222;27.874;2023-04-10T13:08:02;101079.44;;;16.64;100.00
50242;BME280;36126;43.222;27.874;2023-04-10T13:10:28;101073.94;;;16.74;100.00